Time;durP1;ratioP1;P1;durP2;ratioP2;P2;SDS_P1;SDS_P2;PMS_P1;PMS_P2;Temp;Humidity;BMP_temperature;BMP_pressure;BME280_temperature;BME280_humidity;BME280_pressure;Samples;Min_cycle;Max_cycle;Signal;HPM_P1;HPM_P2
2022/04/27 00:02:06;;;;;;;;;;;13.30;92.70;;;;;;5073730;28;19947;-89
2022/04/27 00:04:32;;;;;;;;;;;13.30;92.80;;;;;;5073443;28;19980;-89
2022/04/27 00:06:57;;;;;;;;;;;13.30;92.80;;;;;;5073656;28;19947;-89
2022/04/27 00:09:23;;;;;;;;;;;13.20;92.70;;;;;;5073389;28;19961;-89
2022/04/27 00:11:48;;;;;;;;;;;13.10;92.80;;;;;;5073576;28;20112;-89
2022/04/27 00:14:14;;;;;;;;;;;13.10;92.90;;;;;;5073020;28;19987;-89
2022/04/27 00:16:40;;;;;;;;;;;13.10;93.00;;;;;;5073517;28;20002;-89
2022/04/27 00:19:05;;;;;;;;;;;13.10;93.00;;;;;;5073275;28;19956;-89
2022/04/27 00:21:31;;;;;;;;;;;13.10;93.00;;;;;;5073405;28;20235;-89
2022/04/27 00:23:56;;;;;;;;;;;13.10;93.00;;;;;;5073158;28;20407;-89
2022/04/27 00:26:22;;;;;;;;;;;13.00;93.00;;;;;;5073393;28;20315;-89
2022/04/27 00:28:47;;;;;;;;;;;13.00;93.10;;;;;;5073068;28;20360;-89
2022/04/27 00:31:13;;;;;;;;;;;12.90;93.10;;;;;;5073223;28;19974;-89
2022/04/27 00:33:39;;;;;;;;;;;12.90;93.20;;;;;;5072895;28;19967;-89
2022/04/27 00:36:04;;;;;;;;;;;12.90;93.20;;;;;;5072857;28;19956;-89
2022/04/27 00:38:30;;;;;;;;;;;12.90;93.30;;;;;;5073008;28;19962;-90
2022/04/27 00:40:55;;;;;;;;;;;12.90;93.30;;;;;;5073168;28;20516;-89
2022/04/27 00:43:34;;;;;;;;;;;12.90;93.30;;;;;;5073167;28;19978;-89
2022/04/27 00:45:59;;;;;;;;;;;12.90;93.40;;;;;;5072773;28;19965;-90
2022/04/27 00:48:25;;;;;;;;;;;12.90;93.30;;;;;;5073126;28;20055;-89
2022/04/27 00:50:51;;;;;;;;;;;12.80;93.30;;;;;;5072958;28;19971;-89
2022/04/27 00:53:17;;;;;;;;;;;12.70;93.30;;;;;;5072785;28;19972;-89
2022/04/27 00:55:42;;;;;;;;;;;12.70;93.30;;;;;;5072734;28;20384;-89
2022/04/27 00:58:09;;;;;;;;;;;12.70;93.30;;;;;;5072996;28;20000;-89
2022/04/27 01:00:35;;;;;;;;;;;12.60;93.40;;;;;;5072763;28;19967;-89
2022/04/27 01:03:00;;;;;;;;;;;12.60;93.50;;;;;;5072729;28;19983;-90
2022/04/27 01:05:26;;;;;;;;;;;12.60;93.60;;;;;;5072676;28;20047;-89
2022/04/27 01:07:52;;;;;;;;;;;12.50;93.60;;;;;;5072918;28;20431;-89
2022/04/27 01:10:18;;;;;;;;;;;12.50;93.70;;;;;;5076725;28;19967;-89
2022/04/27 01:12:44;;;;;;;;;;;12.40;93.70;;;;;;5076702;28;20374;-89
2022/04/27 01:15:09;;;;;;;;;;;12.40;93.60;;;;;;5076613;28;20297;-89
2022/04/27 01:17:35;;;;;;;;;;;12.40;93.50;;;;;;5077197;28;20312;-89
2022/04/27 01:20:00;;;;;;;;;;;12.30;93.40;;;;;;5076883;28;19980;-89
2022/04/27 01:22:27;;;;;;;;;;;12.20;93.50;;;;;;5076582;28;20492;-89
2022/04/27 01:24:52;;;;;;;;;;;12.10;93.60;;;;;;5075478;28;19981;-89
2022/04/27 01:27:18;;;;;;;;;;;12.20;93.90;;;;;;5058600;28;20002;-89
2022/04/27 01:29:43;;;;;;;;;;;12.20;94.10;;;;;;5076424;28;20277;-89
2022/04/27 01:32:10;;;;;;;;;;;12.30;94.20;;;;;;5075684;28;20503;-89
2022/04/27 01:34:35;;;;;;;;;;;12.40;94.30;;;;;;5076554;28;20052;-88
2022/04/27 01:39:45;;;;;;;;;;;12.40;94.20;;;;;;5076501;28;20000;-89
2022/04/27 01:42:11;;;;;;;;;;;12.50;94.10;;;;;;5075994;28;19978;-89
2022/04/27 01:44:37;;;;;;;;;;;12.60;94.10;;;;;;5076076;28;19965;-90
2022/04/27 01:47:03;;;;;;;;;;;12.60;94.00;;;;;;5076313;28;19946;-89
2022/04/27 01:49:28;;;;;;;;;;;12.60;93.90;;;;;;5076303;28;19960;-89
2022/04/27 01:54:38;;;;;;;;;;;12.70;93.90;;;;;;5076190;28;20006;-89
2022/04/27 01:57:03;;;;;;;;;;;12.80;93.80;;;;;;5076160;28;19965;-89
2022/04/27 01:59:29;;;;;;;;;;;12.80;93.80;;;;;;5076093;28;20000;-89
2022/04/27 02:01:57;;;;;;;;;;;12.90;93.70;;;;;;5075801;28;19976;-89
2022/04/27 02:04:22;;;;;;;;;;;12.90;93.70;;;;;;5075878;28;20338;-89
2022/04/27 02:06:48;;;;;;;;;;;12.90;93.60;;;;;;5075665;28;19978;-89
2022/04/27 02:09:13;;;;;;;;;;;12.90;93.40;;;;;;5057940;28;19977;-90
2022/04/27 02:11:39;;;;;;;;;;;12.90;93.40;;;;;;5075574;28;19992;-89
2022/04/27 02:14:05;;;;;;;;;;;13.00;93.30;;;;;;5075626;28;19945;-89
2022/04/27 02:16:31;;;;;;;;;;;13.00;93.20;;;;;;5075835;28;19948;-90
2022/04/27 02:18:57;;;;;;;;;;;13.00;93.00;;;;;;5075521;28;19981;-90
2022/04/27 02:21:23;;;;;;;;;;;13.00;93.00;;;;;;5074718;28;20085;-89
2022/04/27 02:23:49;;;;;;;;;;;13.00;92.90;;;;;;5075412;28;19971;-90
2022/04/27 02:26:15;;;;;;;;;;;13.10;92.90;;;;;;5075599;28;20428;-89
2022/04/27 02:28:41;;;;;;;;;;;13.00;92.80;;;;;;5075332;28;20062;-89
2022/04/27 02:31:07;;;;;;;;;;;13.10;92.80;;;;;;5074993;28;19959;-89
2022/04/27 02:33:33;;;;;;;;;;;13.10;92.70;;;;;;5058654;28;20386;-89
2022/04/27 02:35:58;;;;;;;;;;;13.10;92.60;;;;;;5075347;28;19982;-89
2022/04/27 02:38:24;;;;;;;;;;;13.10;92.40;;;;;;5057445;28;19975;-89
2022/04/27 02:40:50;;;;;;;;;;;13.00;92.40;;;;;;5075101;28;20327;-89
2022/04/27 02:43:16;;;;;;;;;;;13.00;92.40;;;;;;5075110;28;19952;-89
2022/04/27 02:45:42;;;;;;;;;;;12.90;92.40;;;;;;5075079;28;19985;-90
2022/04/27 02:48:08;;;;;;;;;;;12.90;92.40;;;;;;5075288;28;20418;-89
2022/04/27 02:53:18;;;;;;;;;;;12.90;92.20;;;;;;5074871;28;20473;-89
2022/04/27 02:55:44;;;;;;;;;;;12.90;92.10;;;;;;5075099;28;19950;-89
2022/04/27 02:58:10;;;;;;;;;;;12.80;92.00;;;;;;5075030;28;19960;-89
2022/04/27 03:00:36;;;;;;;;;;;12.70;92.00;;;;;;5074224;28;19965;-89
2022/04/27 03:03:02;;;;;;;;;;;12.60;92.10;;;;;;5074770;28;19977;-89
2022/04/27 03:05:28;;;;;;;;;;;12.50;92.20;;;;;;5075131;28;19992;-89
2022/04/27 03:07:53;;;;;;;;;;;12.40;92.30;;;;;;5074859;28;20044;-89
2022/04/27 03:10:20;;;;;;;;;;;12.40;92.50;;;;;;5074594;28;20449;-89
2022/04/27 03:12:45;;;;;;;;;;;12.30;92.60;;;;;;5074306;28;19990;-89
2022/04/27 03:15:11;;;;;;;;;;;12.30;93.00;;;;;;5074399;28;19982;-88
2022/04/27 03:17:36;;;;;;;;;;;12.20;93.50;;;;;;5074626;28;20309;-89
2022/04/27 03:20:04;;;;;;;;;;;12.10;93.60;;;;;;5074296;28;19997;-89
2022/04/27 03:25:35;;;;;;;;;;;12.10;93.70;;;;;;5144346;27;20064;-89
2022/04/27 03:28:00;;;;;;;;;;;11.80;93.50;;;;;;5111020;28;19991;-90
2022/04/27 03:30:26;;;;;;;;;;;11.80;93.70;;;;;;5095416;28;19956;-90
2022/04/27 03:32:54;;;;;;;;;;;11.80;93.70;;;;;;5104468;28;19956;-88
2022/04/27 03:35:19;;;;;;;;;;;11.70;93.70;;;;;;5110885;28;20456;-89
2022/04/27 03:37:45;;;;;;;;;;;11.60;93.60;;;;;;5110822;28;19962;-89
2022/04/27 03:40:11;;;;;;;;;;;11.60;93.70;;;;;;5109522;28;20477;-89
2022/04/27 03:42:37;;;;;;;;;;;11.50;93.90;;;;;;5109051;28;20016;-88
2022/04/27 03:45:03;;;;;;;;;;;11.40;93.80;;;;;;5108851;28;20365;-89
2022/04/27 03:47:29;;;;;;;;;;;11.30;93.70;;;;;;5110694;28;19966;-89
2022/04/27 03:49:58;;;;;;;;;;;11.20;93.60;;;;;;5110617;28;19950;-89
2022/04/27 03:52:24;;;;;;;;;;;11.20;93.70;;;;;;5100807;28;19972;-88
2022/04/27 03:54:50;;;;;;;;;;;11.20;93.70;;;;;;5110533;28;19986;-89
2022/04/27 03:57:15;;;;;;;;;;;11.10;93.70;;;;;;5109813;28;20318;-89
2022/04/27 03:59:41;;;;;;;;;;;11.10;93.80;;;;;;5104914;28;20425;-88
2022/04/27 04:02:06;;;;;;;;;;;11.00;93.90;;;;;;5097051;28;20010;-89
2022/04/27 04:04:32;;;;;;;;;;;10.90;94.00;;;;;;5110258;28;19988;-89
2022/04/27 04:06:58;;;;;;;;;;;10.90;94.00;;;;;;5097464;28;19978;-88
2022/04/27 04:09:24;;;;;;;;;;;10.90;94.10;;;;;;5088872;28;20036;-89
2022/04/27 04:11:49;;;;;;;;;;;10.80;94.00;;;;;;5090240;28;19978;-89
2022/04/27 04:14:15;;;;;;;;;;;10.80;94.00;;;;;;5089946;28;20356;-89
2022/04/27 04:16:40;;;;;;;;;;;10.70;94.00;;;;;;5089726;28;19951;-89
2022/04/27 04:19:06;;;;;;;;;;;10.70;94.10;;;;;;5090011;28;19970;-89
2022/04/27 04:21:31;;;;;;;;;;;10.70;94.10;;;;;;5089595;28;19966;-89
2022/04/27 04:23:57;;;;;;;;;;;10.60;94.00;;;;;;5088233;28;20473;-89
2022/04/27 04:29:06;;;;;;;;;;;10.50;93.90;;;;;;5096325;28;20326;-89
2022/04/27 04:31:31;;;;;;;;;;;10.50;93.70;;;;;;5109457;28;19954;-89
2022/04/27 04:33:57;;;;;;;;;;;10.60;93.60;;;;;;5101524;28;19955;-89
2022/04/27 04:36:23;;;;;;;;;;;10.60;93.00;;;;;;5084665;28;19956;-89
2022/04/27 04:38:48;;;;;;;;;;;10.60;92.60;;;;;;5076092;28;20395;-89
2022/04/27 04:41:14;;;;;;;;;;;10.60;92.60;;;;;;5076861;28;19981;-90
2022/04/27 04:43:39;;;;;;;;;;;10.50;92.30;;;;;;5095067;28;20000;-89
2022/04/27 04:46:05;;;;;;;;;;;10.60;92.30;;;;;;5096253;28;19954;-89
2022/04/27 04:48:30;;;;;;;;;;;10.50;92.00;;;;;;5096204;28;19950;-89
2022/04/27 04:56:05;;;;;;;;;;;10.60;92.00;;;;;;5136643;27;19988;-89
2022/04/27 04:58:31;;;;;;;;;;;10.40;90.90;;;;;;5075834;28;19970;-89
2022/04/27 05:00:57;;;;;;;;;;;10.50;90.40;;;;;;5076168;28;19965;-89
2022/04/27 05:03:22;;;;;;;;;;;10.50;90.10;;;;;;5089427;28;19965;-89
2022/04/27 05:05:48;;;;;;;;;;;10.60;90.00;;;;;;5093518;28;19956;-89
2022/04/27 05:08:13;;;;;;;;;;;10.60;89.90;;;;;;5084054;28;20330;-89
2022/04/27 05:10:39;;;;;;;;;;;10.60;89.90;;;;;;5073927;28;20329;-89
2022/04/27 05:13:04;;;;;;;;;;;10.70;89.90;;;;;;5085813;28;20063;-89
2022/04/27 05:15:30;;;;;;;;;;;10.70;90.10;;;;;;5090797;28;20417;-89
2022/04/27 05:17:56;;;;;;;;;;;10.70;90.10;;;;;;5085516;28;19961;-89
2022/04/27 05:20:22;;;;;;;;;;;10.70;90.00;;;;;;5089956;28;20097;-89
2022/04/27 05:22:48;;;;;;;;;;;10.70;89.90;;;;;;5093617;28;20422;-88
2022/04/27 05:25:13;;;;;;;;;;;10.80;89.80;;;;;;5100656;28;20488;-89
2022/04/27 05:27:39;;;;;;;;;;;10.80;89.80;;;;;;5095488;28;20365;-89
2022/04/27 05:32:49;;;;;;;;;;;10.90;89.40;;;;;;5091444;28;20348;-89
2022/04/27 05:35:15;;;;;;;;;;;11.00;89.00;;;;;;5091952;28;19979;-89
2022/04/27 05:37:41;;;;;;;;;;;11.10;88.70;;;;;;5087786;28;19987;-89
2022/04/27 05:40:07;;;;;;;;;;;11.10;88.50;;;;;;5078675;28;19961;-89
2022/04/27 05:42:35;;;;;;;;;;;11.20;88.00;;;;;;5083428;28;19956;-89
2022/04/27 05:45:00;;;;;;;;;;;11.30;87.30;;;;;;5076100;28;19959;-89
2022/04/27 05:47:26;;;;;;;;;;;11.30;86.90;;;;;;5091520;28;19963;-88
2022/04/27 05:49:52;;;;;;;;;;;11.40;86.20;;;;;;5082083;28;20513;-89
2022/04/27 05:52:20;;;;;;;;;;;11.40;85.30;;;;;;5077178;28;20017;-89
2022/04/27 05:54:48;;;;;;;;;;;11.40;85.30;;;;;;5089241;28;19982;-89
2022/04/27 05:57:14;;;;;;;;;;;11.50;85.10;;;;;;5083085;28;19944;-89
2022/04/27 05:59:40;;;;;;;;;;;11.60;84.80;;;;;;5088305;28;20316;-89
2022/04/27 06:02:05;;;;;;;;;;;11.60;85.10;;;;;;5078256;28;19962;-89
2022/04/27 06:04:31;;;;;;;;;;;11.80;85.10;;;;;;5087482;28;19946;-89
2022/04/27 06:06:56;;;;;;;;;;;11.80;84.50;;;;;;5075104;28;19986;-89
2022/04/27 06:09:22;;;;;;;;;;;11.90;83.40;;;;;;5082737;28;20131;-88
2022/04/27 06:11:48;;;;;;;;;;;12.00;83.40;;;;;;5071560;28;19996;-89
2022/04/27 06:14:13;;;;;;;;;;;12.10;81.70;;;;;;5068662;28;19957;-89
2022/04/27 06:16:39;;;;;;;;;;;12.30;82.70;;;;;;5066794;28;19958;-89
2022/04/27 06:19:04;;;;;;;;;;;12.30;82.80;;;;;;5087779;28;20021;-89
2022/04/27 06:21:33;;;;;;;;;;;12.40;81.70;;;;;;5080420;28;19964;-88
2022/04/27 06:24:00;;;;;;;;;;;12.40;81.50;;;;;;5074926;28;19984;-88
2022/04/27 06:26:26;;;;;;;;;;;12.70;79.30;;;;;;5082029;28;19967;-88
2022/04/27 06:28:52;;;;;;;;;;;12.80;79.00;;;;;;5076241;28;20229;-88
2022/04/27 06:31:18;;;;;;;;;;;12.90;80.10;;;;;;5078497;28;19939;-88
2022/04/27 06:33:44;;;;;;;;;;;13.00;81.90;;;;;;5074904;28;19948;-88
2022/04/27 06:36:10;;;;;;;;;;;13.10;78.90;;;;;;5071106;28;19951;-88
2022/04/27 06:38:36;;;;;;;;;;;13.10;78.60;;;;;;5072020;28;19976;-88
2022/04/27 06:41:02;;;;;;;;;;;13.20;79.10;;;;;;5074830;28;20322;-88
2022/04/27 06:43:27;;;;;;;;;;;13.30;78.40;;;;;;5075156;28;20046;-88
2022/04/27 06:45:53;;;;;;;;;;;13.30;77.70;;;;;;5071908;28;20102;-88
2022/04/27 06:48:19;;;;;;;;;;;13.30;78.30;;;;;;5073254;28;19962;-88
2022/04/27 06:50:44;;;;;;;;;;;13.40;77.60;;;;;;5074330;28;19934;-88
2022/04/27 06:53:10;;;;;;;;;;;13.50;77.40;;;;;;5066466;28;20396;-88
2022/04/27 06:55:36;;;;;;;;;;;13.50;76.80;;;;;;5077510;28;19990;-88
2022/04/27 06:58:02;;;;;;;;;;;13.60;78.00;;;;;;5073346;28;19967;-88
2022/04/27 07:00:27;;;;;;;;;;;13.70;78.10;;;;;;5071695;28;20317;-88
2022/04/27 07:02:53;;;;;;;;;;;13.80;78.00;;;;;;5077947;28;20068;-88
2022/04/27 07:05:20;;;;;;;;;;;13.90;77.50;;;;;;5070329;28;20326;-88
2022/04/27 07:10:25;;;;;;;;;;;13.90;78.10;;;;;;5135784;27;19959;-87
2022/04/27 07:14:19;;;;;;;;;;;14.10;76.80;;;;;;5120767;27;19975;-87
2022/04/27 07:30:27;;;;;;;;;;;14.20;77.00;;;;;;5142965;27;20004;-89
2022/04/27 07:32:52;;;;;;;;;;;14.50;78.00;;;;;;5096867;28;20387;-89
2022/04/27 07:35:18;;;;;;;;;;;14.60;76.20;;;;;;5087392;28;19978;-88
2022/04/27 07:37:44;;;;;;;;;;;14.70;75.50;;;;;;5101456;28;19962;-89
2022/04/27 07:40:10;;;;;;;;;;;14.80;74.90;;;;;;5088100;28;19916;-89
2022/04/27 07:42:36;;;;;;;;;;;14.90;76.30;;;;;;5088665;28;19947;-89
2022/04/27 07:45:02;;;;;;;;;;;15.00;76.10;;;;;;5096867;28;20458;-88
2022/04/27 07:47:27;;;;;;;;;;;15.10;75.80;;;;;;5081169;28;19966;-89
2022/04/27 07:49:53;;;;;;;;;;;15.10;75.70;;;;;;5087432;28;19947;-89
2022/04/27 07:52:18;;;;;;;;;;;15.10;71.30;;;;;;5090020;28;19963;-89
2022/04/27 07:54:45;;;;;;;;;;;15.10;71.00;;;;;;5077969;28;19991;-89
2022/04/27 07:57:10;;;;;;;;;;;15.20;73.50;;;;;;5074730;28;20354;-89
2022/04/27 07:59:36;;;;;;;;;;;15.30;75.60;;;;;;5095304;28;19959;-89
2022/04/27 08:02:01;;;;;;;;;;;15.30;75.60;;;;;;5081949;28;20167;-89
2022/04/27 08:04:27;;;;;;;;;;;15.30;74.10;;;;;;5085029;28;19958;-89
2022/04/27 08:06:52;;;;;;;;;;;15.40;72.10;;;;;;5081359;28;19957;-89
2022/04/27 08:09:18;;;;;;;;;;;15.50;71.00;;;;;;5098133;28;19924;-89
2022/04/27 08:11:43;;;;;;;;;;;15.60;70.50;;;;;;5097127;28;20459;-89
2022/04/27 08:14:09;;;;;;;;;;;15.80;70.30;;;;;;5086462;28;19943;-89
2022/04/27 08:16:34;;;;;;;;;;;15.90;69.90;;;;;;5085272;28;20297;-88
2022/04/27 08:19:00;;;;;;;;;;;15.90;69.40;;;;;;5077768;28;19920;-89
2022/04/27 08:21:27;;;;;;;;;;;15.90;70.40;;;;;;5082665;28;19932;-89
2022/04/27 08:23:52;;;;;;;;;;;15.90;70.10;;;;;;5081467;28;19970;-89
2022/04/27 08:26:18;;;;;;;;;;;15.90;69.70;;;;;;5089336;28;19974;-89
2022/04/27 08:28:45;;;;;;;;;;;15.90;71.90;;;;;;5071890;28;19920;-88
2022/04/27 08:31:12;;;;;;;;;;;16.00;73.40;;;;;;5077520;28;19997;-89
2022/04/27 08:33:37;;;;;;;;;;;16.00;71.00;;;;;;5085447;28;19920;-89
2022/04/27 08:36:03;;;;;;;;;;;16.10;70.40;;;;;;5079051;28;19915;-89
2022/04/27 08:38:30;;;;;;;;;;;16.20;71.30;;;;;;5078344;28;19961;-89
2022/04/27 08:40:55;;;;;;;;;;;16.20;69.10;;;;;;5076208;28;20026;-89
2022/04/27 08:43:21;;;;;;;;;;;16.30;66.80;;;;;;5068727;28;19920;-89
2022/04/27 08:45:47;;;;;;;;;;;16.40;66.90;;;;;;5074196;28;19919;-90
2022/04/27 08:48:14;;;;;;;;;;;16.50;68.20;;;;;;5067829;28;20395;-90
2022/04/27 08:50:40;;;;;;;;;;;16.50;66.10;;;;;;5077744;28;20002;-88
2022/04/27 08:53:06;;;;;;;;;;;16.40;66.00;;;;;;5069907;28;20019;-88
2022/04/27 08:55:32;;;;;;;;;;;16.50;69.30;;;;;;5076734;28;19991;-88
2022/04/27 08:58:11;;;;;;;;;;;16.60;70.20;;;;;;5078620;28;20278;-88
2022/04/27 09:00:37;;;;;;;;;;;16.60;68.10;;;;;;5073392;28;19912;-89
2022/04/27 09:03:22;;;;;;;;;;;16.60;66.50;;;;;;5075764;28;19998;-89
2022/04/27 09:05:50;;;;;;;;;;;16.60;65.90;;;;;;5066383;28;19984;-89
2022/04/27 09:08:15;;;;;;;;;;;16.70;64.50;;;;;;5075238;28;20048;-90
2022/04/27 09:10:41;;;;;;;;;;;16.80;65.40;;;;;;5063964;28;20019;-89
2022/04/27 09:13:06;;;;;;;;;;;16.90;64.70;;;;;;5059840;28;19963;-90
2022/04/27 09:15:32;;;;;;;;;;;17.00;65.10;;;;;;5058646;28;20358;-89
2022/04/27 09:20:48;;;;;;;;;;;17.20;63.30;;;;;;5069849;28;19982;-90
2022/04/27 09:23:24;;;;;;;;;;;17.30;66.20;;;;;;5068627;28;19952;-90
2022/04/27 09:25:51;;;;;;;;;;;17.40;63.30;;;;;;5073991;28;20492;-89
2022/04/27 09:28:17;;;;;;;;;;;17.50;64.40;;;;;;5072017;28;19980;-89
2022/04/27 09:30:43;;;;;;;;;;;17.50;64.40;;;;;;5063915;28;19920;-90
2022/04/27 09:33:09;;;;;;;;;;;17.40;63.90;;;;;;5073252;28;20428;-90
2022/04/27 09:35:36;;;;;;;;;;;17.60;65.20;;;;;;5073950;28;19960;-89
2022/04/27 09:38:18;;;;;;;;;;;17.60;65.10;;;;;;5061583;28;19952;-90
2022/04/27 09:40:44;;;;;;;;;;;17.70;65.30;;;;;;5060348;28;19912;-90
2022/04/27 09:43:12;;;;;;;;;;;17.80;64.60;;;;;;5064660;28;20274;-90
2022/04/27 09:45:38;;;;;;;;;;;17.90;64.60;;;;;;5064251;28;20115;-91
2022/04/27 09:48:04;;;;;;;;;;;17.90;62.20;;;;;;5062239;28;20032;-91
2022/04/27 09:50:48;;;;;;;;;;;17.90;57.60;;;;;;5065611;28;19921;-90
2022/04/27 09:53:17;;;;;;;;;;;18.00;58.40;;;;;;5061472;28;19917;-90
2022/04/27 09:55:48;;;;;;;;;;;18.10;59.10;;;;;;5076862;28;19957;-90
2022/04/27 09:58:15;;;;;;;;;;;18.20;58.60;;;;;;5067208;28;19913;-91
2022/04/27 10:00:44;;;;;;;;;;;18.30;62.70;;;;;;5073101;28;19958;-90
2022/04/27 10:03:18;;;;;;;;;;;18.40;61.80;;;;;;5057273;28;19954;-90
2022/04/27 10:05:45;;;;;;;;;;;18.30;60.90;;;;;;5065527;28;20265;-90
2022/04/27 10:08:11;;;;;;;;;;;18.20;62.70;;;;;;5064895;28;20034;-88
2022/04/27 10:10:37;;;;;;;;;;;18.30;59.20;;;;;;5062538;28;20062;-89
2022/04/27 10:13:03;;;;;;;;;;;18.30;60.00;;;;;;5081787;28;19919;-90
2022/04/27 10:15:29;;;;;;;;;;;18.30;57.40;;;;;;5061166;28;19995;-89
2022/04/27 10:17:55;;;;;;;;;;;18.20;53.90;;;;;;5054079;28;19913;-89
2022/04/27 10:20:27;;;;;;;;;;;18.30;52.80;;;;;;5058546;28;20402;-89
2022/04/27 10:23:12;;;;;;;;;;;18.40;56.40;;;;;;5053948;28;20446;-89
2022/04/27 10:25:38;;;;;;;;;;;18.50;60.80;;;;;;5053920;28;19988;-89
2022/04/27 10:28:15;;;;;;;;;;;18.60;57.50;;;;;;5053694;28;19944;-89
2022/04/27 10:30:42;;;;;;;;;;;18.70;57.00;;;;;;5076489;28;19912;-90
2022/04/27 10:33:08;;;;;;;;;;;18.80;56.30;;;;;;5088721;28;19958;-90
2022/04/27 10:35:35;;;;;;;;;;;18.80;54.40;;;;;;5093834;28;19908;-90
2022/04/27 10:38:02;;;;;;;;;;;19.00;55.10;;;;;;5093830;28;20357;-89
2022/04/27 10:40:32;;;;;;;;;;;19.00;55.10;;;;;;5085877;28;20417;-89
2022/04/27 10:43:13;;;;;;;;;;;19.10;57.60;;;;;;5093837;28;19973;-88
2022/04/27 10:45:47;;;;;;;;;;;19.20;55.60;;;;;;5066136;28;19924;-89
2022/04/27 10:48:23;;;;;;;;;;;19.00;56.60;;;;;;5057122;28;19920;-88
2022/04/27 10:50:55;;;;;;;;;;;18.90;56.10;;;;;;5057752;28;19970;-90
2022/04/27 10:53:21;;;;;;;;;;;18.80;53.10;;;;;;5068983;28;19916;-89
2022/04/27 10:55:50;;;;;;;;;;;18.70;53.80;;;;;;5068093;28;19951;-89
2022/04/27 10:58:37;;;;;;;;;;;18.70;53.50;;;;;;5075780;28;19936;-90
2022/04/27 11:01:12;;;;;;;;;;;18.60;52.30;;;;;;5072750;28;19977;-90
2022/04/27 11:03:38;;;;;;;;;;;18.80;54.20;;;;;;5073371;28;19963;-90
2022/04/27 11:06:05;;;;;;;;;;;19.10;54.10;;;;;;5073305;28;19926;-90
2022/04/27 11:08:49;;;;;;;;;;;19.30;52.00;;;;;;5073444;28;20381;-91
2022/04/27 11:11:16;;;;;;;;;;;19.70;53.50;;;;;;5071287;28;19916;-90
2022/04/27 11:13:42;;;;;;;;;;;20.00;49.10;;;;;;5073232;28;19988;-89
2022/04/27 11:16:08;;;;;;;;;;;20.10;48.70;;;;;;5073203;28;20317;-89
2022/04/27 11:18:49;;;;;;;;;;;20.10;47.60;;;;;;5079499;28;19949;-89
2022/04/27 11:21:17;;;;;;;;;;;20.00;48.50;;;;;;5055791;28;19920;-89
2022/04/27 11:23:43;;;;;;;;;;;19.80;49.70;;;;;;5071474;28;20377;-89
2022/04/27 11:26:09;;;;;;;;;;;19.80;49.90;;;;;;5070484;28;19939;-89
2022/04/27 11:28:36;;;;;;;;;;;20.00;50.70;;;;;;5067160;28;19993;-91
2022/04/27 11:31:01;;;;;;;;;;;20.30;53.60;;;;;;5070052;28;19999;-90
2022/04/27 11:33:27;;;;;;;;;;;20.70;54.00;;;;;;5059359;28;20030;-91
2022/04/27 11:35:53;;;;;;;;;;;21.10;50.00;;;;;;5077193;28;19958;-91
2022/04/27 11:38:19;;;;;;;;;;;21.40;52.30;;;;;;5065466;28;19917;-90
2022/04/27 11:40:45;;;;;;;;;;;21.50;46.00;;;;;;5062851;28;19946;-90
2022/04/27 11:43:11;;;;;;;;;;;21.30;45.50;;;;;;5063306;28;19912;-90
2022/04/27 11:45:38;;;;;;;;;;;21.00;50.60;;;;;;5059672;28;19940;-90
2022/04/27 11:48:04;;;;;;;;;;;20.80;47.80;;;;;;5052823;28;19961;-89
2022/04/27 11:50:34;;;;;;;;;;;20.70;47.10;;;;;;5066265;28;20003;-90
2022/04/27 11:53:01;;;;;;;;;;;20.70;46.40;;;;;;5067773;28;19913;-89
2022/04/27 11:55:28;;;;;;;;;;;20.80;47.80;;;;;;5069393;28;20023;-90
2022/04/27 11:57:54;;;;;;;;;;;21.00;47.70;;;;;;5065015;28;19957;-90
2022/04/27 12:00:20;;;;;;;;;;;20.90;50.20;;;;;;5075140;28;21313;-90
2022/04/27 12:02:45;;;;;;;;;;;21.30;52.00;;;;;;5064334;28;20035;-91
2022/04/27 12:05:11;;;;;;;;;;;21.50;47.70;;;;;;5066640;28;20070;-90
2022/04/27 12:07:37;;;;;;;;;;;21.30;45.40;;;;;;5070777;28;19912;-91
2022/04/27 12:10:07;;;;;;;;;;;21.80;47.70;;;;;;5070179;28;20038;-90
2022/04/27 12:12:33;;;;;;;;;;;21.80;46.80;;;;;;5088059;28;20447;-90
2022/04/27 12:15:12;;;;;;;;;;;21.80;46.30;;;;;;5080871;28;19978;-90
2022/04/27 12:17:51;;;;;;;;;;;21.80;45.80;;;;;;5065064;28;19935;-90
2022/04/27 12:20:30;;;;;;;;;;;22.40;42.30;;;;;;5057424;28;19923;-91
2022/04/27 12:22:56;;;;;;;;;;;23.30;42.10;;;;;;5076591;28;19962;-91
2022/04/27 12:25:22;;;;;;;;;;;23.90;39.50;;;;;;5069226;28;20413;-91
2022/04/27 12:27:50;;;;;;;;;;;24.60;37.90;;;;;;5075895;28;19908;-91
2022/04/27 12:30:20;;;;;;;;;;;24.90;38.10;;;;;;5060810;28;19997;-91
2022/04/27 12:32:46;;;;;;;;;;;25.30;38.90;;;;;;5074095;28;19995;-91
2022/04/27 12:37:55;;;;;;;;;;;24.80;39.50;;;;;;5071475;28;19999;-90
2022/04/27 12:40:21;;;;;;;;;;;24.70;38.70;;;;;;5057492;28;19917;-90
2022/04/27 12:43:04;;;;;;;;;;;23.40;41.60;;;;;;5068438;28;19916;-90
2022/04/27 12:45:30;;;;;;;;;;;22.70;45.20;;;;;;5061005;28;19988;-89
2022/04/27 12:47:56;;;;;;;;;;;22.70;41.50;;;;;;5066862;28;19912;-90
2022/04/27 12:50:23;;;;;;;;;;;23.00;43.40;;;;;;5061220;28;19986;-90
2022/04/27 12:52:49;;;;;;;;;;;24.30;39.40;;;;;;5063472;28;20381;-90
2022/04/27 12:55:16;;;;;;;;;;;25.70;38.60;;;;;;5071648;28;19913;-89
2022/04/27 12:57:41;;;;;;;;;;;26.40;33.90;;;;;;5063239;28;20355;-90
2022/04/27 13:00:08;;;;;;;;;;;26.90;34.20;;;;;;5058022;28;20079;-90
2022/04/27 13:02:33;;;;;;;;;;;27.90;35.30;;;;;;5066165;28;19995;-90
2022/04/27 13:04:59;;;;;;;;;;;28.70;31.20;;;;;;5070721;28;19956;-90
2022/04/27 13:07:24;;;;;;;;;;;28.70;31.90;;;;;;5061414;28;19991;-90
2022/04/27 13:12:35;;;;;;;;;;;28.60;30.40;;;;;;5082090;28;20075;-90
2022/04/27 13:15:02;;;;;;;;;;;29.10;29.50;;;;;;5074055;28;19917;-90
2022/04/27 13:17:28;;;;;;;;;;;30.60;28.30;;;;;;5059237;28;19984;-90
2022/04/27 13:19:53;;;;;;;;;;;31.00;28.20;;;;;;5078643;28;19916;-91
2022/04/27 13:22:19;;;;;;;;;;;31.20;27.90;;;;;;5074805;28;19968;-91
2022/04/27 13:24:45;;;;;;;;;;;30.70;28.80;;;;;;5070042;28;19956;-91
2022/04/27 13:27:11;;;;;;;;;;;29.90;29.40;;;;;;5069075;28;19967;-91
2022/04/27 13:29:36;;;;;;;;;;;28.30;32.10;;;;;;5070588;28;19920;-90
2022/04/27 13:32:02;;;;;;;;;;;27.50;33.80;;;;;;5067887;28;19913;-89
2022/04/27 13:34:28;;;;;;;;;;;28.00;34.40;;;;;;5067484;28;19935;-90
2022/04/27 13:36:53;;;;;;;;;;;28.20;32.70;;;;;;5073217;28;19958;-91
2022/04/27 13:39:19;;;;;;;;;;;28.40;33.10;;;;;;5083903;28;19999;-90
2022/04/27 13:41:44;;;;;;;;;;;28.80;31.10;;;;;;5068773;28;19966;-89
2022/04/27 13:44:13;;;;;;;;;;;28.30;30.80;;;;;;5069136;28;20406;-89
2022/04/27 13:46:38;;;;;;;;;;;28.00;31.80;;;;;;5062438;28;19916;-89
2022/04/27 13:49:04;;;;;;;;;;;28.60;31.00;;;;;;5069167;28;20342;-92
2022/04/27 13:51:30;;;;;;;;;;;29.70;28.90;;;;;;5067499;28;20398;-91
2022/04/27 13:53:57;;;;;;;;;;;30.70;28.50;;;;;;5067293;28;19913;-91
2022/04/27 13:56:23;;;;;;;;;;;30.20;28.60;;;;;;5061035;28;19917;-90
2022/04/27 13:58:48;;;;;;;;;;;30.70;28.40;;;;;;5064352;28;19982;-92
2022/04/27 14:01:14;;;;;;;;;;;30.70;28.70;;;;;;5065651;28;19958;-89
2022/04/27 14:03:39;;;;;;;;;;;30.60;28.00;;;;;;5074317;28;19952;-91
2022/04/27 14:06:05;;;;;;;;;;;29.00;30.90;;;;;;5060189;28;20341;-90
2022/04/27 14:08:30;;;;;;;;;;;27.80;33.80;;;;;;5068776;28;19968;-91
2022/04/27 14:10:56;;;;;;;;;;;28.20;36.10;;;;;;5059254;28;20321;-91
2022/04/27 14:13:24;;;;;;;;;;;27.60;34.80;;;;;;5065491;28;19912;-90
2022/04/27 14:18:34;;;;;;;;;;;26.30;35.50;;;;;;5057150;28;19935;-90
2022/04/27 14:21:00;;;;;;;;;;;27.80;33.00;;;;;;5069417;28;20362;-90
2022/04/27 14:23:26;;;;;;;;;;;28.90;32.10;;;;;;5079423;28;19912;-91
2022/04/27 14:25:52;;;;;;;;;;;28.80;32.50;;;;;;5079018;28;19953;-91
2022/04/27 14:28:18;;;;;;;;;;;28.90;33.80;;;;;;5076794;28;20495;-91
2022/04/27 14:30:43;;;;;;;;;;;28.80;36.10;;;;;;5075728;28;20352;-91
2022/04/27 14:33:10;;;;;;;;;;;29.00;32.70;;;;;;5068695;28;19999;-91
2022/04/27 14:35:36;;;;;;;;;;;28.90;32.30;;;;;;5062489;28;20393;-91
2022/04/27 14:38:05;;;;;;;;;;;29.00;34.70;;;;;;5070134;28;19928;-91
2022/04/27 14:40:33;;;;;;;;;;;29.50;35.10;;;;;;5065537;28;21301;-91
2022/04/27 14:42:59;;;;;;;;;;;29.20;33.30;;;;;;5060213;28;19976;-91
2022/04/27 14:45:24;;;;;;;;;;;30.20;33.70;;;;;;5061334;28;20283;-91
2022/04/27 14:47:50;;;;;;;;;;;30.40;33.10;;;;;;5068541;28;20370;-91
2022/04/27 14:50:16;;;;;;;;;;;31.60;30.30;;;;;;5068813;28;19989;-91
2022/04/27 14:52:41;;;;;;;;;;;31.40;30.60;;;;;;5064708;28;19919;-91
2022/04/27 14:55:07;;;;;;;;;;;30.80;32.70;;;;;;5063555;28;20023;-91
2022/04/27 14:57:33;;;;;;;;;;;30.30;33.20;;;;;;5069676;28;19986;-91
2022/04/27 14:59:59;;;;;;;;;;;30.00;30.70;;;;;;5072402;28;19976;-91
2022/04/27 15:02:25;;;;;;;;;;;29.10;32.40;;;;;;5066820;28;20284;-92
2022/04/27 15:04:51;;;;;;;;;;;29.20;34.40;;;;;;5072443;28;19949;-92